Time;durP1;ratioP1;P1;durP2;ratioP2;P2;SDS_P1;SDS_P2;PMS_P1;PMS_P2;Temp;Humidity;BMP_temperature;BMP_pressure;BME280_temperature;BME280_humidity;BME280_pressure;Samples;Min_cycle;Max_cycle;Signal;HPM_P1;HPM_P2
2024/02/20 00:00:07;;;;;;;;;;;;;;;11.62;53.93;101203.84;4935939;28;99241;-68
2024/02/20 00:02:33;;;;;;;;;;;;;;;11.63;53.98;101204.66;4919219;28;114178;-71
2024/02/20 00:05:00;;;;;;;;;;;;;;;11.62;54.09;101197.66;4903436;28;98024;-68
2024/02/20 00:07:27;;;;;;;;;;;;;;;11.61;53.96;101196.84;4909493;28;98391;-68
2024/02/20 00:09:53;;;;;;;;;;;;;;;11.63;53.95;101204.66;4920899;28;98068;-72
2024/02/20 00:12:20;;;;;;;;;;;;;;;11.62;53.95;101197.66;4906225;28;127948;-67
2024/02/20 00:14:46;;;;;;;;;;;;;;;11.62;54.10;101200.34;4923313;28;98898;-71
2024/02/20 00:17:13;;;;;;;;;;;;;;;11.62;54.01;101195.75;4938713;28;122848;-67
2024/02/20 00:19:38;;;;;;;;;;;;;;;11.62;54.16;101203.03;4940013;28;98131;-67
2024/02/20 00:22:05;;;;;;;;;;;;;;;11.62;54.16;101198.47;4921241;28;111093;-66
2024/02/20 00:24:31;;;;;;;;;;;;;;;11.62;54.07;101194.94;4908364;28;98139;-71
2024/02/20 00:26:58;;;;;;;;;;;;;;;11.62;54.03;101195.75;4901578;28;98565;-67
2024/02/20 00:29:24;;;;;;;;;;;;;;;11.63;54.16;101204.66;4922166;28;98253;-70
2024/02/20 00:31:51;;;;;;;;;;;;;;;11.63;54.00;101208.22;4939417;28;127430;-67
2024/02/20 00:34:20;;;;;;;;;;;;;;;11.63;53.73;101202.81;4922620;28;98043;-66
2024/02/20 00:36:46;;;;;;;;;;;;;;;11.62;53.84;101203.84;4908250;28;98021;-70
2024/02/20 00:39:13;;;;;;;;;;;;;;;11.64;54.07;101209.03;4922059;28;98530;-67
2024/02/20 00:41:40;;;;;;;;;;;;;;;11.63;54.14;101210.06;4925677;28;98667;-67
2024/02/20 00:44:06;;;;;;;;;;;;;;;11.62;54.06;101206.56;4910094;28;98527;-67
2024/02/20 00:46:32;;;;;;;;;;;;;;;11.64;54.03;101204.44;4952096;28;111260;-71
2024/02/20 00:48:58;;;;;;;;;;;;;;;11.71;54.25;101212.28;4917354;28;97989;-71
2024/02/20 00:51:24;;;;;;;;;;;;;;;11.76;54.13;101205.06;4917052;28;99378;-67
2024/02/20 00:53:50;;;;;;;;;;;;;;;11.83;54.22;101207.59;4908015;28;98797;-67
2024/02/20 00:56:16;;;;;;;;;;;;;;;11.88;54.25;101207.63;4918183;28;98077;-71
2024/02/20 00:58:45;;;;;;;;;;;;;;;11.93;54.18;101206.84;4919996;28;103645;-71
2024/02/20 01:01:12;;;;;;;;;;;;;;;11.96;54.12;101215.25;4936013;28;98359;-67
2024/02/20 01:03:39;;;;;;;;;;;;;;;11.99;54.21;101213.94;4930608;28;98387;-71
2024/02/20 01:06:08;;;;;;;;;;;;;;;12.02;54.11;101208.84;4926827;28;98657;-67
2024/02/20 01:08:35;;;;;;;;;;;;;;;12.03;54.12;101201.53;4924800;28;98255;-71
2024/02/20 01:11:02;;;;;;;;;;;;;;;12.04;54.12;101201.28;4918282;28;114458;-67
2024/02/20 01:13:28;;;;;;;;;;;;;;;12.06;54.15;101203.69;4920764;28;98420;-70
2024/02/20 01:15:54;;;;;;;;;;;;;;;12.07;54.18;101193.72;4905378;28;97869;-71
2024/02/20 01:18:20;;;;;;;;;;;;;;;12.07;54.00;101199.94;4913506;28;98135;-67
2024/02/20 01:20:46;;;;;;;;;;;;;;;12.08;54.25;101200.75;4905132;28;98487;-71
2024/02/20 01:23:13;;;;;;;;;;;;;;;12.09;54.22;101196.97;4919331;28;107262;-71
2024/02/20 01:25:39;;;;;;;;;;;;;;;12.09;54.24;101192.38;4904799;28;98149;-71
2024/02/20 01:28:06;;;;;;;;;;;;;;;12.09;54.30;101186.16;4908037;28;99614;-66
2024/02/20 01:30:32;;;;;;;;;;;;;;;12.09;54.12;101191.56;4911192;28;99426;-71
2024/02/20 01:32:58;;;;;;;;;;;;;;;12.09;54.17;101188.88;4934105;28;98973;-71
2024/02/20 01:35:24;;;;;;;;;;;;;;;12.09;54.24;101186.16;4906995;28;97885;-71
2024/02/20 01:37:50;;;;;;;;;;;;;;;12.09;54.20;101186.16;4900537;28;99914;-68
2024/02/20 01:40:16;;;;;;;;;;;;;;;12.09;54.41;101186.16;4936013;28;98390;-67
2024/02/20 01:42:43;;;;;;;;;;;;;;;12.08;54.25;101182.66;4905829;28;99315;-67
2024/02/20 01:45:09;;;;;;;;;;;;;;;12.08;54.43;101185.34;4910753;28;98098;-71
2024/02/20 01:47:36;;;;;;;;;;;;;;;12.08;54.30;101184.53;4925042;28;106253;-67
2024/02/20 01:50:02;;;;;;;;;;;;;;;12.08;54.33;101181.84;4925034;28;100330;-71
2024/02/20 01:52:28;;;;;;;;;;;;;;;12.07;54.06;101182.94;4936060;28;98115;-67
2024/02/20 01:55:00;;;;;;;;;;;;;;;12.07;54.10;101180.22;4919991;28;98136;-67
2024/02/20 01:57:26;;;;;;;;;;;;;;;12.06;54.29;101181.28;4901519;28;99689;-70
2024/02/20 01:59:52;;;;;;;;;;;;;;;12.05;54.09;101183.16;4910485;28;103252;-71
2024/02/20 02:02:20;;;;;;;;;;;;;;;12.05;54.20;101183.16;4922691;28;103068;-67
2024/02/20 02:04:46;;;;;;;;;;;;;;;12.04;54.00;101176.94;4919076;28;98474;-71
2024/02/20 02:07:12;;;;;;;;;;;;;;;12.04;54.30;101176.13;4923931;28;113825;-67
2024/02/20 02:09:39;;;;;;;;;;;;;;;12.05;54.09;101175.06;4918565;28;105878;-67
2024/02/20 02:12:05;;;;;;;;;;;;;;;12.03;54.08;101178.03;4937948;28;98687;-68
2024/02/20 02:14:32;;;;;;;;;;;;;;;12.04;54.36;101179.66;4905967;28;100424;-71
2024/02/20 02:16:58;;;;;;;;;;;;;;;12.03;54.20;101178.03;4917775;28;98470;-67
2024/02/20 02:19:24;;;;;;;;;;;;;;;12.03;54.16;101180.72;4917907;28;98731;-71
2024/02/20 02:21:51;;;;;;;;;;;;;;;12.02;54.17;101175.56;4905660;28;98717;-67
2024/02/20 02:24:18;;;;;;;;;;;;;;;12.02;54.03;101187.22;4903848;28;98460;-67
2024/02/20 02:26:45;;;;;;;;;;;;;;;12.03;54.12;101185.31;4921166;28;105522;-67
2024/02/20 02:29:11;;;;;;;;;;;;;;;12.02;54.08;101178.28;4901696;28;99273;-71
2024/02/20 02:31:39;;;;;;;;;;;;;;;12.02;54.16;101186.38;4911353;28;98968;-67
2024/02/20 02:34:06;;;;;;;;;;;;;;;12.01;54.13;101182.06;4904034;28;98120;-67
2024/02/20 02:36:32;;;;;;;;;;;;;;;12.01;54.26;101180.16;4920944;28;100730;-67
2024/02/20 02:38:58;;;;;;;;;;;;;;;11.99;54.28;101179.63;4915152;28;98173;-71
2024/02/20 02:41:24;;;;;;;;;;;;;;;12.00;54.25;101183.13;4907013;28;103748;-70
2024/02/20 02:43:50;;;;;;;;;;;;;;;11.99;54.11;101176.13;4921367;28;97983;-71
2024/02/20 02:46:17;;;;;;;;;;;;;;;11.99;54.11;101178.81;4920138;28;98204;-67
2024/02/20 02:48:43;;;;;;;;;;;;;;;11.99;54.32;101176.13;4903255;28;98083;-67
2024/02/20 02:51:10;;;;;;;;;;;;;;;11.99;54.32;101181.50;4921639;28;97972;-67
2024/02/20 02:53:39;;;;;;;;;;;;;;;11.99;54.36;101181.50;4920656;28;98402;-67
2024/02/20 02:56:09;;;;;;;;;;;;;;;11.98;54.12;101185.28;4932507;28;99251;-70
2024/02/20 02:58:35;;;;;;;;;;;;;;;11.98;54.12;101185.28;4921045;28;98574;-71
2024/02/20 03:01:02;;;;;;;;;;;;;;;11.97;54.26;101181.75;4920137;28;97961;-67
2024/02/20 03:03:28;;;;;;;;;;;;;;;11.98;54.18;101179.88;4915613;28;97983;-70
2024/02/20 03:05:54;;;;;;;;;;;;;;;11.98;54.18;101183.38;4937695;28;126025;-66
2024/02/20 03:08:21;;;;;;;;;;;;;;;11.97;54.42;101192.56;4905367;28;127125;-66
2024/02/20 03:10:48;;;;;;;;;;;;;;;11.97;54.17;101189.88;4918918;28;100767;-70
2024/02/20 03:13:15;;;;;;;;;;;;;;;11.98;54.31;101190.66;4904591;28;98157;-66
2024/02/20 03:15:41;;;;;;;;;;;;;;;11.98;54.10;101185.28;4920327;28;98726;-66
2024/02/20 03:18:07;;;;;;;;;;;;;;;11.98;54.22;101193.38;4905819;28;107049;-70
2024/02/20 03:20:33;;;;;;;;;;;;;;;11.96;54.36;101182.84;4936602;28;109366;-70
2024/02/20 03:23:00;;;;;;;;;;;;;;;11.97;54.17;101197.97;4928454;28;98125;-67
2024/02/20 03:25:26;;;;;;;;;;;;;;;11.98;54.11;101199.59;4916214;28;98366;-69
2024/02/20 03:27:52;;;;;;;;;;;;;;;11.97;54.07;101200.66;4938722;28;99738;-70
2024/02/20 03:30:19;;;;;;;;;;;;;;;11.98;54.10;101201.47;4947764;28;98531;-70
2024/02/20 03:32:50;;;;;;;;;;;;;;;11.97;54.31;101197.97;4923599;28;98253;-67
2024/02/20 03:35:21;;;;;;;;;;;;;;;11.98;54.12;101204.19;4939859;28;98582;-71
2024/02/20 03:37:48;;;;;;;;;;;;;;;11.97;54.07;101206.06;4903051;28;98239;-70
2024/02/20 03:40:15;;;;;;;;;;;;;;;11.97;54.11;101206.06;4925606;28;99335;-70
2024/02/20 03:42:41;;;;;;;;;;;;;;;11.97;54.35;101207.97;4905306;28;99260;-68
2024/02/20 03:45:07;;;;;;;;;;;;;;;11.97;54.17;101206.06;4916869;28;99624;-71
2024/02/20 03:47:33;;;;;;;;;;;;;;;11.98;54.08;101212.28;4937639;28;106681;-71
2024/02/20 03:50:00;;;;;;;;;;;;;;;11.97;54.22;101202.56;4920539;28;99149;-68
2024/02/20 03:52:26;;;;;;;;;;;;;;;11.98;54.22;101215.00;4909463;28;97773;-67
2024/02/20 04:19:39;;;;;;;;;;;;;;;11.95;54.09;101237.16;4896300;28;98349;-71
2024/02/20 04:22:05;;;;;;;;;;;;;;;11.95;54.29;101239.84;4882847;28;98049;-71
2024/02/20 04:24:31;;;;;;;;;;;;;;;11.94;54.17;101239.00;4881890;28;98250;-71
2024/02/20 04:26:57;;;;;;;;;;;;;;;11.95;54.12;101242.53;4879636;28;115235;-67
2024/02/20 04:29:23;;;;;;;;;;;;;;;11.93;54.34;101240.09;4894954;28;98384;-67
2024/02/20 04:31:49;;;;;;;;;;;;;;;11.94;54.20;101239.00;4881447;28;110737;-67
2024/02/20 04:34:15;;;;;;;;;;;;;;;11.93;54.17;101240.09;4878359;28;111962;-70
2024/02/20 04:36:41;;;;;;;;;;;;;;;11.93;54.17;101245.50;4878697;28;127233;-66
2024/02/20 04:39:08;;;;;;;;;;;;;;;11.94;54.40;101249.81;4865215;28;98066;-70
2024/02/20 04:41:34;;;;;;;;;;;;;;;11.93;54.17;101247.38;4865834;28;98173;-70
2024/02/20 04:44:00;;;;;;;;;;;;;;;11.92;54.04;101249.28;4870490;28;97988;-67
2024/02/20 04:46:29;;;;;;;;;;;;;;;11.93;54.26;101258.19;4896157;28;97957;-67
2024/02/20 04:48:55;;;;;;;;;;;;;;;11.92;54.45;101257.38;4877839;28;98273;-71
2024/02/20 04:51:21;;;;;;;;;;;;;;;11.92;54.10;101256.56;4877793;28;101885;-70
2024/02/20 04:53:48;;;;;;;;;;;;;;;11.91;54.20;101269.25;4878925;28;98108;-70
2024/02/20 04:56:15;;;;;;;;;;;;;;;11.89;54.18;101259.78;4896717;28;98364;-67
2024/02/20 04:58:45;;;;;;;;;;;;;;;11.87;54.12;101260.03;4899141;28;98159;-68
2024/02/20 05:01:15;;;;;;;;;;;;;;;11.85;54.18;101269.47;4882111;28;98165;-70
2024/02/20 05:03:41;;;;;;;;;;;;;;;11.83;54.29;101268.84;4866848;28;98380;-70
2024/02/20 05:06:07;;;;;;;;;;;;;;;11.80;54.27;101275.59;4880617;28;99869;-70
2024/02/20 05:08:34;;;;;;;;;;;;;;;11.77;54.31;101270.72;4884200;28;98385;-70
2024/02/20 05:11:00;;;;;;;;;;;;;;;11.74;54.29;101260.41;4871414;28;98409;-66
2024/02/20 05:13:27;;;;;;;;;;;;;;;11.70;54.46;101267.38;4865597;28;98233;-66
2024/02/20 05:15:53;;;;;;;;;;;;;;;11.67;54.25;101271.44;4885702;28;98601;-70
2024/02/20 05:18:20;;;;;;;;;;;;;;;11.65;54.30;101273.56;4914473;28;98580;-66
2024/02/20 05:20:47;;;;;;;;;;;;;;;11.62;54.29;101268.66;4922440;28;99368;-66
2024/02/20 05:23:14;;;;;;;;;;;;;;;11.59;54.30;101274.56;4920110;28;98246;-70
2024/02/20 05:25:40;;;;;;;;;;;;;;;11.57;54.32;101275.91;4917321;28;98178;-70
2024/02/20 05:28:07;;;;;;;;;;;;;;;11.53;54.48;101276.41;4917625;28;98244;-70
2024/02/20 05:30:34;;;;;;;;;;;;;;;11.51;54.29;101278.56;4931354;28;98803;-70
2024/02/20 05:33:02;;;;;;;;;;;;;;;11.48;54.33;101280.97;4903050;28;98095;-67
2024/02/20 05:35:28;;;;;;;;;;;;;;;11.45;54.55;101284.97;4935954;28;98031;-70
2024/02/20 05:37:58;;;;;;;;;;;;;;;11.44;54.30;101290.63;4904555;28;98355;-67
2024/02/20 05:40:30;;;;;;;;;;;;;;;11.42;54.43;101290.06;4921412;28;98133;-66
2024/02/20 05:42:58;;;;;;;;;;;;;;;11.39;54.40;101294.06;4922830;28;98175;-67
2024/02/20 05:45:25;;;;;;;;;;;;;;;11.37;54.35;101298.09;4916933;28;98391;-71
2024/02/20 05:47:52;;;;;;;;;;;;;;;11.34;54.42;101296.72;4917419;28;98406;-67
2024/02/20 05:50:20;;;;;;;;;;;;;;;11.32;54.48;101298.88;4924078;28;98409;-71
2024/02/20 05:52:46;;;;;;;;;;;;;;;11.30;54.37;101301.78;4911630;28;98496;-67
2024/02/20 05:55:13;;;;;;;;;;;;;;;11.27;54.35;101307.69;4916065;28;99390;-70
2024/02/20 05:57:40;;;;;;;;;;;;;;;11.27;54.36;101306.88;4926946;28;97932;-67
2024/02/20 06:00:07;;;;;;;;;;;;;;;11.25;54.36;101309.03;4917676;28;98236;-67
2024/02/20 06:02:34;;;;;;;;;;;;;;;11.23;54.39;101314.66;4925171;28;98393;-67
2024/02/20 06:05:00;;;;;;;;;;;;;;;11.22;54.48;101314.91;4904849;28;98318;-70
2024/02/20 06:07:28;;;;;;;;;;;;;;;11.20;54.39;101320.59;4898313;28;98349;-71
2024/02/20 06:09:55;;;;;;;;;;;;;;;11.19;54.18;101318.13;4906904;28;98373;-70
2024/02/20 06:12:23;;;;;;;;;;;;;;;11.17;54.48;101318.38;4910297;28;99292;-66
2024/02/20 06:14:50;;;;;;;;;;;;;;;11.16;54.41;101326.69;4924476;28;98367;-70
2024/02/20 06:17:20;;;;;;;;;;;;;;;11.13;54.35;101322.66;4903355;28;98073;-71
2024/02/20 06:19:46;;;;;;;;;;;;;;;11.12;54.44;101328.28;4926692;28;98267;-67
2024/02/20 06:22:13;;;;;;;;;;;;;;;11.11;54.42;101335.56;4908337;28;100624;-71
2024/02/20 06:24:39;;;;;;;;;;;;;;;11.09;54.38;101335.00;4909335;28;98100;-70
2024/02/20 06:27:07;;;;;;;;;;;;;;;11.09;54.42;101340.41;4917108;28;98203;-67
2024/02/20 06:29:34;;;;;;;;;;;;;;;11.07;54.41;101334.41;4906480;28;98021;-71
2024/02/20 06:32:02;;;;;;;;;;;;;;;11.06;54.79;101333.59;4917358;28;98525;-67
2024/02/20 06:34:29;;;;;;;;;;;;;;;11.07;54.26;101337.13;4909274;28;98285;-71
2024/02/20 06:36:56;;;;;;;;;;;;;;;11.07;54.38;101342.50;4908111;28;99714;-70
2024/02/20 06:39:22;;;;;;;;;;;;;;;11.08;54.24;101349.53;4906194;28;98438;-70
2024/02/20 06:41:49;;;;;;;;;;;;;;;11.10;54.37;101354.69;4922472;28;98589;-66
2024/02/20 06:44:16;;;;;;;;;;;;;;;11.10;54.27;101352.81;4939283;28;98146;-67
2024/02/20 06:46:43;;;;;;;;;;;;;;;11.13;54.29;101351.50;4915668;28;98189;-66
2024/02/20 06:49:09;;;;;;;;;;;;;;;11.13;54.32;101359.59;4922146;28;98021;-70
2024/02/20 06:51:39;;;;;;;;;;;;;;;11.14;54.18;101364.75;4924013;28;98343;-67
2024/02/20 06:54:06;;;;;;;;;;;;;;;11.21;54.28;101369.97;4905585;28;97945;-71
2024/02/20 06:56:35;;;;;;;;;;;;;;;11.27;54.14;101375.16;4943587;28;98512;-66
2024/02/20 06:59:01;;;;;;;;;;;;;;;11.35;54.14;101370.41;4923911;28;98396;-71
2024/02/20 07:01:28;;;;;;;;;;;;;;;11.40;53.87;101374.00;4936628;28;98167;-70
2024/02/20 07:03:54;;;;;;;;;;;;;;;11.46;54.00;101381.09;4907240;28;98156;-70
2024/02/20 07:06:23;;;;;;;;;;;;;;;11.47;54.06;101387.28;4908357;28;98519;-70
2024/02/20 07:08:50;;;;;;;;;;;;;;;11.50;53.97;101384.09;4905686;28;98163;-70
2024/02/20 07:11:21;;;;;;;;;;;;;;;11.51;54.15;101386.56;4937847;28;98245;-67
2024/02/20 07:13:51;;;;;;;;;;;;;;;11.54;54.10;101394.13;4912828;28;98189;-67
2024/02/20 07:16:17;;;;;;;;;;;;;;;11.58;54.01;101389.06;4916225;28;99754;-71
2024/02/20 07:18:44;;;;;;;;;;;;;;;11.62;53.92;101401.00;4905052;28;97998;-66
2024/02/20 07:21:11;;;;;;;;;;;;;;;11.64;53.81;101401.56;4922100;28;99304;-71
2024/02/20 07:23:38;;;;;;;;;;;;;;;11.68;53.95;101401.88;4936785;28;98573;-67
2024/02/20 07:26:05;;;;;;;;;;;;;;;11.70;53.86;101402.44;4905902;28;98573;-71
2024/02/20 07:28:32;;;;;;;;;;;;;;;11.72;53.87;101403.81;4922908;28;98312;-66
2024/02/20 07:31:00;;;;;;;;;;;;;;;11.75;53.78;101402.47;4915593;28;99135;-67
2024/02/20 07:33:26;;;;;;;;;;;;;;;11.76;54.02;101396.03;4907378;28;98370;-71
2024/02/20 07:35:52;;;;;;;;;;;;;;;11.86;53.81;101411.56;4942764;28;98049;-67
2024/02/20 07:38:19;;;;;;;;;;;;;;;11.98;53.72;101401.44;4933023;28;100468;-66
2024/02/20 07:40:46;;;;;;;;;;;;;;;12.09;53.56;101400.47;4944377;28;98354;-70
2024/02/20 07:43:12;;;;;;;;;;;;;;;12.20;53.61;101412.19;4899743;28;100784;-70
2024/02/20 07:45:39;;;;;;;;;;;;;;;12.25;53.47;101418.47;4908362;28;98156;-67
2024/02/20 07:48:11;;;;;;;;;;;;;;;12.28;53.50;101417.97;4909100;28;99743;-70
2024/02/20 07:50:39;;;;;;;;;;;;;;;12.31;53.43;101422.06;4924396;28;99608;-66
2024/02/20 07:53:08;;;;;;;;;;;;;;;12.30;53.74;101428.53;4926263;28;99153;-70
2024/02/20 07:55:41;;;;;;;;;;;;;;;12.31;53.79;101426.66;4928792;28;98539;-70
2024/02/20 07:58:08;;;;;;;;;;;;;;;12.49;53.45;101428.97;4906057;28;98457;-70
2024/02/20 08:00:35;;;;;;;;;;;;;;;12.51;53.52;101438.47;4953913;28;98288;-67
2024/02/20 08:03:01;;;;;;;;;;;;;;;12.41;53.59;101441.06;4912338;28;98025;-67
2024/02/20 08:05:28;;;;;;;;;;;;;;;12.52;53.79;101442.78;4918551;28;98279;-67
2024/02/20 08:07:55;;;;;;;;;;;;;;;12.66;53.49;101440.50;4937612;28;101361;-71
2024/02/20 08:10:21;;;;;;;;;;;;;;;12.73;53.35;101435.69;4925729;28;98082;-71
2024/02/20 08:12:49;;;;;;;;;;;;;;;12.76;53.42;101440.56;4917377;28;98954;-70
2024/02/20 08:15:18;;;;;;;;;;;;;;;12.72;53.24;101444.03;4920115;28;98374;-66
2024/02/20 08:17:44;;;;;;;;;;;;;;;12.67;53.55;101450.22;4910195;28;98401;-71
2024/02/20 08:20:11;;;;;;;;;;;;;;;12.63;53.76;101445.59;4907394;28;98541;-70
2024/02/20 08:22:38;;;;;;;;;;;;;;;12.73;53.67;101445.66;4939694;28;98743;-70
2024/02/20 08:25:05;;;;;;;;;;;;;;;12.75;53.40;101447.03;4906865;28;98171;-70
2024/02/20 08:27:31;;;;;;;;;;;;;;;12.84;53.54;101447.38;4924630;28;98630;-67
2024/02/20 08:29:58;;;;;;;;;;;;;;;13.12;53.11;101445.41;4927382;28;98041;-71
2024/02/20 08:32:26;;;;;;;;;;;;;;;13.29;53.08;101434.47;4919440;28;98311;-70
2024/02/20 08:34:54;;;;;;;;;;;;;;;13.38;52.92;101446.44;4936882;28;98304;-66
2024/02/20 08:37:25;;;;;;;;;;;;;;;13.30;53.14;101436.09;4908999;28;98816;-67
2024/02/20 08:39:51;;;;;;;;;;;;;;;13.48;53.04;101427.53;4924749;28;98326;-67
2024/02/20 08:42:19;;;;;;;;;;;;;;;14.52;51.61;101433.00;4903794;28;99797;-71
2024/02/20 08:44:47;;;;;;;;;;;;;;;16.83;49.17;101421.78;4910287;28;98266;-67
2024/02/20 08:47:13;;;;;;;;;;;;;;;17.85;48.92;101428.88;4902186;28;98530;-67
2024/02/20 08:49:40;;;;;;;;;;;;;;;17.68;49.89;101439.41;4919291;28;101634;-71
2024/02/20 08:52:06;;;;;;;;;;;;;;;17.78;50.46;101438.50;4926191;28;99883;-71
2024/02/20 08:54:33;;;;;;;;;;;;;;;18.06;50.30;101444.94;4915819;28;98199;-71
2024/02/20 08:56:59;;;;;;;;;;;;;;;17.82;50.92;101451.25;4922630;28;99266;-67
2024/02/20 08:59:30;;;;;;;;;;;;;;;18.04;50.93;101447.97;4944222;28;99927;-67
2024/02/20 09:01:57;;;;;;;;;;;;;;;18.01;50.96;101451.28;4956208;28;98107;-72
2024/02/20 09:04:30;;;;;;;;;;;;;;;17.68;51.67;101453.03;4907855;28;98217;-67
2024/02/20 09:06:58;;;;;;;;;;;;;;;17.51;51.91;101447.25;4909547;28;99734;-71
2024/02/20 09:09:28;;;;;;;;;;;;;;;17.19;52.05;101456.84;4938228;28;98169;-67
2024/02/20 09:11:56;;;;;;;;;;;;;;;16.93;52.60;101454.34;4921574;28;98303;-67
2024/02/20 09:14:22;;;;;;;;;;;;;;;16.67;52.86;101461.09;4927273;28;99872;-67
2024/02/20 09:16:48;;;;;;;;;;;;;;;16.58;52.67;101463.59;4949449;28;98402;-67
2024/02/20 09:19:16;;;;;;;;;;;;;;;16.53;52.84;101458.19;4908628;28;99720;-67
2024/02/20 09:21:42;;;;;;;;;;;;;;;16.33;52.92;101455.63;4907457;28;98796;-71
2024/02/20 09:24:10;;;;;;;;;;;;;;;16.15;52.98;101457.06;4921758;28;98232;-67
2024/02/20 09:26:36;;;;;;;;;;;;;;;16.03;53.09;101464.75;4921083;28;98350;-71
2024/02/20 09:29:04;;;;;;;;;;;;;;;15.93;53.34;101460.19;4921015;28;98272;-67
2024/02/20 09:31:30;;;;;;;;;;;;;;;15.93;53.09;101460.19;4953782;28;98118;-71
2024/02/20 09:33:57;;;;;;;;;;;;;;;15.75;53.21;101474.41;4910539;28;99369;-71
2024/02/20 09:36:23;;;;;;;;;;;;;;;15.77;53.24;101473.03;4937224;28;98299;-71
2024/02/20 09:38:50;;;;;;;;;;;;;;;15.99;52.78;101475.38;4942682;28;98096;-71
2024/02/20 09:41:24;;;;;;;;;;;;;;;16.29;52.31;101470.88;4921791;28;98934;-67
2024/02/20 09:43:50;;;;;;;;;;;;;;;16.48;52.26;101477.28;4903171;28;98064;-71
2024/02/20 09:46:19;;;;;;;;;;;;;;;16.72;52.21;101474.66;4905616;28;98228;-67
2024/02/20 09:48:47;;;;;;;;;;;;;;;16.64;52.43;101481.53;4921098;28;102720;-71
2024/02/20 09:51:14;;;;;;;;;;;;;;;16.42;52.63;101479.22;4917549;28;98198;-71
2024/02/20 09:53:41;;;;;;;;;;;;;;;16.30;52.93;101481.47;4919923;28;98193;-71
2024/02/20 09:56:08;;;;;;;;;;;;;;;16.09;53.31;101490.84;4943578;28;98009;-67
2024/02/20 09:58:36;;;;;;;;;;;;;;;15.89;53.26;101481.69;4908884;28;98013;-67
2024/02/20 10:01:04;;;;;;;;;;;;;;;15.72;53.36;101486.66;4915417;28;98472;-71
2024/02/20 10:03:38;;;;;;;;;;;;;;;15.61;53.46;101487.75;4923408;28;100323;-66
2024/02/20 10:06:05;;;;;;;;;;;;;;;15.60;53.27;101486.09;4917375;28;98209;-70
2024/02/20 10:08:32;;;;;;;;;;;;;;;15.78;53.10;101479.28;4935681;28;97908;-67
2024/02/20 10:10:59;;;;;;;;;;;;;;;15.87;52.79;101477.63;4906352;28;98295;-71
2024/02/20 10:13:26;;;;;;;;;;;;;;;15.92;52.86;101483.84;4917032;28;99741;-71
2024/02/20 10:16:03;;;;;;;;;;;;;;;16.19;52.70;101488.06;4915224;28;98337;-67
2024/02/20 10:18:30;;;;;;;;;;;;;;;16.31;52.41;101487.72;4919003;28;98486;-71
2024/02/20 10:21:03;;;;;;;;;;;;;;;16.39;52.38;101496.13;4927740;28;98524;-71
2024/02/20 10:23:31;;;;;;;;;;;;;;;16.30;52.73;101494.25;4921689;28;98090;-67
2024/02/20 10:25:59;;;;;;;;;;;;;;;16.15;52.92;101500.59;4921116;28;98546;-67
2024/02/20 10:28:27;;;;;;;;;;;;;;;16.19;52.88;101496.22;4918437;28;103564;-71
2024/02/20 10:30:55;;;;;;;;;;;;;;;16.19;52.93;101505.22;4921680;28;98192;-67
2024/02/20 10:33:22;;;;;;;;;;;;;;;16.24;52.81;101501.66;4934442;28;98497;-71
2024/02/20 10:35:59;;;;;;;;;;;;;;;16.30;52.70;101500.50;4920632;28;100559;-67
2024/02/20 10:38:26;;;;;;;;;;;;;;;16.28;52.82;101499.19;4926702;28;100793;-71
2024/02/20 10:40:55;;;;;;;;;;;;;;;16.38;52.79;101490.94;4918362;28;98185;-67
2024/02/20 10:43:22;;;;;;;;;;;;;;;16.40;52.63;101486.06;4917647;28;101348;-71
2024/02/20 10:45:51;;;;;;;;;;;;;;;16.32;52.74;101492.09;4925663;28;98394;-71
2024/02/20 10:48:19;;;;;;;;;;;;;;;16.22;52.96;101482.06;4918557;28;97956;-67
2024/02/20 10:50:46;;;;;;;;;;;;;;;16.40;52.64;101492.31;4922873;28;98458;-67
2024/02/20 10:53:14;;;;;;;;;;;;;;;16.60;52.42;101502.25;4918469;28;98264;-71
2024/02/20 10:55:42;;;;;;;;;;;;;;;16.83;52.25;101498.03;4910996;28;98300;-67
2024/02/20 10:58:16;;;;;;;;;;;;;;;16.63;52.69;101504.41;4934729;28;98203;-67
2024/02/20 11:00:46;;;;;;;;;;;;;;;16.43;52.89;101507.25;4906670;28;97932;-70
2024/02/20 11:03:13;;;;;;;;;;;;;;;16.33;52.99;101501.88;4923132;28;98891;-71
2024/02/20 11:05:39;;;;;;;;;;;;;;;16.32;53.06;101497.53;4919221;28;98317;-67
2024/02/20 11:08:08;;;;;;;;;;;;;;;16.51;52.64;101501.22;4919697;28;98123;-71
2024/02/20 11:10:35;;;;;;;;;;;;;;;16.76;52.54;101483.09;4925871;28;98192;-71
2024/02/20 11:13:14;;;;;;;;;;;;;;;16.99;52.21;101487.81;4906162;28;99972;-67
2024/02/20 11:15:40;;;;;;;;;;;;;;;17.29;51.97;101489.47;4935090;28;98357;-67
2024/02/20 11:18:18;;;;;;;;;;;;;;;17.29;51.98;101492.19;4923996;28;98476;-71
2024/02/20 11:20:44;;;;;;;;;;;;;;;16.89;52.98;101499.59;4939173;28;97843;-71
2024/02/20 11:23:13;;;;;;;;;;;;;;;16.62;53.14;101493.78;4923160;28;98105;-67
2024/02/20 11:25:41;;;;;;;;;;;;;;;16.40;53.17;101486.06;4924260;28;98117;-67
2024/02/20 11:28:15;;;;;;;;;;;;;;;16.25;53.26;101477.97;4921478;28;100112;-71
2024/02/20 11:30:42;;;;;;;;;;;;;;;16.25;53.16;101486.94;4917782;28;98256;-71
2024/02/20 11:33:15;;;;;;;;;;;;;;;16.15;53.28;101482.41;4905642;28;98162;-67
2024/02/20 11:35:44;;;;;;;;;;;;;;;16.10;53.38;101478.88;4948968;28;98956;-71
2024/02/20 11:38:11;;;;;;;;;;;;;;;16.14;53.06;101474.50;4915410;28;98856;-71
2024/02/20 11:40:39;;;;;;;;;;;;;;;16.07;53.17;101468.53;4921208;28;98408;-67
2024/02/20 11:43:08;;;;;;;;;;;;;;;16.02;53.21;101472.09;4908555;28;98137;-67
2024/02/20 11:45:36;;;;;;;;;;;;;;;16.12;53.05;101463.09;4926664;28;98178;-67
2024/02/20 11:48:08;;;;;;;;;;;;;;;16.29;52.79;101463.53;4904443;28;99268;-67
2024/02/20 11:50:41;;;;;;;;;;;;;;;16.48;52.72;101468.31;4927633;28;98263;-67
2024/02/20 11:53:12;;;;;;;;;;;;;;;16.72;52.46;101465.69;4937941;28;98394;-67
2024/02/20 11:55:40;;;;;;;;;;;;;;;16.97;52.30;101460.03;4954771;28;98001;-67
2024/02/20 11:58:07;;;;;;;;;;;;;;;17.00;52.45;101455.94;4938849;28;99430;-71
2024/02/20 12:00:44;;;;;;;;;;;;;;;16.93;52.65;101448.91;4927730;28;98060;-71
2024/02/20 12:03:10;;;;;;;;;;;;;;;16.73;52.84;101459.97;4928135;28;98107;-71
2024/02/20 12:05:41;;;;;;;;;;;;;;;16.60;53.11;101461.41;4907849;28;99705;-71
2024/02/20 12:08:18;;;;;;;;;;;;;;;16.59;52.95;101459.81;4918683;28;98021;-67
2024/02/20 12:10:45;;;;;;;;;;;;;;;16.74;52.91;101452.63;4927762;28;98427;-67
2024/02/20 12:13:18;;;;;;;;;;;;;;;16.87;52.71;101457.44;4904179;28;98640;-67
2024/02/20 12:15:48;;;;;;;;;;;;;;;16.99;52.43;101459.78;4937202;28;98501;-71
2024/02/20 12:18:25;;;;;;;;;;;;;;;17.14;52.39;101454.19;4910616;28;98706;-67
2024/02/20 12:20:52;;;;;;;;;;;;;;;17.29;52.20;101458.66;4910429;28;99834;-67
2024/02/20 12:23:19;;;;;;;;;;;;;;;17.07;52.67;101461.88;4922436;28;98702;-71
2024/02/20 12:25:46;;;;;;;;;;;;;;;16.83;53.03;101461.81;4901525;28;98107;-72
2024/02/20 12:28:14;;;;;;;;;;;;;;;16.65;53.31;101466.00;4921980;28;98429;-67
2024/02/20 12:30:41;;;;;;;;;;;;;;;16.53;53.36;101468.28;4935411;28;98145;-67
2024/02/20 12:33:14;;;;;;;;;;;;;;;16.35;53.42;101461.59;4904781;28;99871;-67
2024/02/20 12:35:41;;;;;;;;;;;;;;;16.16;53.49;101466.88;4919618;28;98422;-67
2024/02/20 12:38:08;;;;;;;;;;;;;;;16.11;53.39;101477.78;4925009;28;98289;-71
2024/02/20 12:40:37;;;;;;;;;;;;;;;16.13;53.28;101467.44;4910714;28;98087;-67
2024/02/20 12:43:04;;;;;;;;;;;;;;;16.10;53.30;101478.88;4912023;28;98255;-67
2024/02/20 12:45:31;;;;;;;;;;;;;;;16.03;53.24;101481.06;4927067;28;98258;-67
2024/02/20 12:47:57;;;;;;;;;;;;;;;15.94;53.44;101476.22;4923557;28;98352;-71
2024/02/20 12:50:23;;;;;;;;;;;;;;;15.90;53.44;101475.16;4903653;28;98325;-71
2024/02/20 12:52:51;;;;;;;;;;;;;;;15.92;53.27;101485.75;4919390;28;97992;-71
2024/02/20 12:55:18;;;;;;;;;;;;;;;15.93;53.29;101490.09;4908316;28;100418;-71
2024/02/20 12:57:44;;;;;;;;;;;;;;;15.97;53.23;101493.09;4940542;28;98098;-71
2024/02/20 13:00:13;;;;;;;;;;;;;;;15.87;53.21;101485.75;4926253;28;99583;-67